Time;durP1;ratioP1;P1;durP2;ratioP2;P2;SDS_P1;SDS_P2;PMS_P1;PMS_P2;Temp;Humidity;BMP_temperature;BMP_pressure;BME280_temperature;BME280_humidity;BME280_pressure;Samples;Min_cycle;Max_cycle;Signal;HPM_P1;HPM_P2
2021/10/29 00:00:52;;;;;;;39.65;26.60;;;;;;;4.93;78.08;100496.56;1768341;80;21033;-88
2021/10/29 00:03:18;;;;;;;36.88;23.95;;;;;;;4.92;78.06;100498.80;1748197;82;21037;-88
2021/10/29 00:05:45;;;;;;;33.70;22.32;;;;;;;4.88;77.98;100494.17;1766770;80;21577;-88
2021/10/29 00:08:11;;;;;;;32.85;22.95;;;;;;;4.86;78.21;100488.63;1767517;80;20922;-88
2021/10/29 00:10:37;;;;;;;31.75;21.75;;;;;;;4.85;78.32;100490.86;1771991;80;21499;-88
2021/10/29 00:13:04;;;;;;;30.60;21.15;;;;;;;4.83;78.28;100488.76;1774468;80;20992;-88
2021/10/29 00:15:31;;;;;;;32.50;20.43;;;;;;;4.81;78.39;100486.23;1768079;80;21024;-88
2021/10/29 00:17:58;;;;;;;30.70;20.27;;;;;;;4.82;78.44;100487.08;1763774;80;21089;-88
2021/10/29 00:20:24;;;;;;;30.60;20.68;;;;;;;4.80;78.45;100488.44;1764000;80;21508;-88
2021/10/29 00:22:50;;;;;;;33.42;21.75;;;;;;;4.81;78.45;100482.77;1764354;80;20978;-89
2021/10/29 00:25:16;;;;;;;31.82;21.87;;;;;;;4.80;78.46;100491.05;1764996;80;20998;-88
2021/10/29 00:27:43;;;;;;;34.53;22.73;;;;;;;4.81;78.48;100490.62;1760648;80;20962;-88
2021/10/29 00:30:11;;;;;;;28.15;20.85;;;;;;;4.79;78.48;100486.75;1766545;81;20990;-88
2021/10/29 00:32:37;;;;;;;30.27;20.48;;;;;;;4.79;78.47;100484.59;1772565;80;20949;-88
2021/10/29 00:35:04;;;;;;;28.40;19.85;;;;;;;4.77;78.45;100486.42;1768598;80;21496;-88
2021/10/29 00:37:37;;;;;;;29.75;19.55;;;;;;;4.76;78.51;100478.20;1772957;80;20934;-88
2021/10/29 00:39:58;;;;;;;28.12;18.87;;;;;;;4.75;78.53;100485.20;1777457;80;21527;-88
2021/10/29 00:42:24;;;;;;;28.12;19.23;;;;;;;4.73;78.72;100481.80;1766169;80;20986;-88
2021/10/29 00:44:50;;;;;;;26.05;18.25;;;;;;;4.74;78.67;100480.91;1766520;80;20985;-88
2021/10/29 00:47:16;;;;;;;34.95;19.82;;;;;;;4.73;78.68;100480.49;1781472;80;21033;-88
2021/10/29 00:49:42;;;;;;;25.27;18.25;;;;;;;4.70;78.48;100478.89;1783256;80;21440;-88
2021/10/29 00:52:08;;;;;;;25.95;17.15;;;;;;;4.67;78.66;100471.19;1773525;80;20950;-88
2021/10/29 00:54:34;;;;;;;27.90;19.02;;;;;;;4.65;78.66;100469.55;1765200;80;21460;-88
2021/10/29 00:57:00;;;;;;;27.60;17.55;;;;;;;4.64;78.73;100474.37;1764505;81;21016;-88
2021/10/29 00:59:26;;;;;;;28.32;18.45;;;;;;;4.64;78.85;100472.63;1764647;80;21065;-88
2021/10/29 01:01:52;;;;;;;27.27;18.05;;;;;;;4.64;78.89;100466.53;1759800;80;21009;-88
2021/10/29 01:04:18;;;;;;;25.95;18.90;;;;;;;4.62;78.89;100461.39;1772642;80;21077;-88
2021/10/29 01:06:45;;;;;;;27.35;17.82;;;;;;;4.61;79.08;100452.33;1778873;80;20974;-88
2021/10/29 01:09:12;;;;;;;25.30;17.48;;;;;;;4.59;79.06;100456.77;1765823;80;20939;-88
2021/10/29 01:11:39;;;;;;;27.80;17.17;;;;;;;4.58;78.96;100454.61;1770719;80;21000;-88
2021/10/29 01:14:06;;;;;;;26.05;18.15;;;;;;;4.56;78.81;100450.36;1781057;80;21040;-88
2021/10/29 01:16:32;;;;;;;27.93;17.55;;;;;;;4.52;78.89;100445.73;1778140;80;21484;-88
2021/10/29 01:18:57;;;;;;;28.15;18.50;;;;;;;4.51;79.01;100452.33;1758733;80;20966;-88
2021/10/29 01:21:23;;;;;;;25.57;18.60;;;;;;;4.48;79.12;100442.88;1764636;80;20990;-88
2021/10/29 01:23:49;;;;;;;30.20;19.35;;;;;;;4.46;79.08;100444.24;1764312;80;21021;-88
2021/10/29 01:26:17;;;;;;;28.30;20.15;;;;;;;4.45;79.14;100433.41;1764727;80;21551;-88
2021/10/29 01:28:45;;;;;;;30.72;19.98;;;;;;;4.44;79.21;100442.61;1769259;80;21013;-88
2021/10/29 01:31:12;;;;;;;31.07;21.55;;;;;;;4.42;79.21;100441.85;1755494;81;20998;-88
2021/10/29 01:33:39;;;;;;;34.83;20.97;;;;;;;4.40;79.08;100438.45;1779676;80;21531;-88
2021/10/29 01:36:05;;;;;;;30.12;19.40;;;;;;;4.38;79.14;100450.29;1758542;80;21006;-88
2021/10/29 01:38:41;;;;;;;33.13;19.65;;;;;;;4.35;79.10;100440.44;1769065;80;21027;-88
2021/10/29 01:41:09;;;;;;;33.95;21.60;;;;;;;4.34;79.19;100441.33;1777635;80;22169;-88
2021/10/29 01:43:45;;;;;;;32.38;21.40;;;;;;;4.32;79.22;100440.58;1764087;80;21050;-88
2021/10/29 01:46:12;;;;;;;37.23;22.77;;;;;;;4.31;79.30;100434.94;1763331;81;21010;-88
2021/10/29 01:48:46;;;;;;;34.27;21.42;;;;;;;4.29;79.16;100438.09;1763990;80;20986;-88
2021/10/29 01:51:12;;;;;;;31.15;20.55;;;;;;;4.27;79.41;100437.30;1763249;80;21816;-88
2021/10/29 01:53:39;;;;;;;33.73;21.95;;;;;;;4.26;79.53;100435.62;1782839;80;21009;-88
2021/10/29 01:56:06;;;;;;;30.02;21.82;;;;;;;4.23;79.56;100432.67;1784319;80;21009;-88
2021/10/29 01:58:32;;;;;;;31.20;20.35;;;;;;;4.21;79.71;100430.15;1780589;80;21452;-88
2021/10/29 02:00:59;;;;;;;30.77;20.97;;;;;;;4.21;79.79;100423.62;1776872;80;21310;-88
2021/10/29 02:03:25;;;;;;;31.62;21.48;;;;;;;4.20;79.68;100425.82;1779198;81;21033;-88
2021/10/29 02:05:51;;;;;;;31.35;19.52;;;;;;;4.18;79.75;100423.75;1779142;81;21018;-88
2021/10/29 02:08:19;;;;;;;26.85;19.23;;;;;;;4.18;79.83;100425.52;1778713;81;20998;-88
2021/10/29 02:10:46;;;;;;;28.73;19.60;;;;;;;4.18;79.85;100425.06;1768650;81;20998;-88
2021/10/29 02:13:12;;;;;;;30.92;21.30;;;;;;;4.18;79.68;100428.14;1764186;80;21018;-88
2021/10/29 02:15:38;;;;;;;31.82;20.90;;;;;;;4.15;79.55;100425.66;1763950;80;20982;-88
2021/10/29 02:18:04;;;;;;;30.48;19.67;;;;;;;4.13;79.66;100432.23;1778694;80;20953;-88
2021/10/29 02:20:30;;;;;;;26.65;20.48;;;;;;;4.12;79.74;100426.63;1781838;80;20950;-89
2021/10/29 02:22:56;;;;;;;26.70;20.85;;;;;;;4.09;79.65;100425.92;1779138;81;20946;-88
2021/10/29 02:25:21;;;;;;;30.55;19.25;;;;;;;4.06;79.75;100418.22;1779685;80;21002;-88
2021/10/29 02:27:47;;;;;;;31.55;21.90;;;;;;;4.03;79.77;100419.66;1767931;80;20965;-88
2021/10/29 02:30:13;;;;;;;29.77;20.30;;;;;;;3.98;79.71;100416.80;1784536;80;21523;-88
2021/10/29 02:32:39;;;;;;;27.15;19.98;;;;;;;3.95;79.84;100416.94;1780506;80;21021;-88
2021/10/29 02:35:06;;;;;;;34.70;21.33;;;;;;;3.93;79.98;100412.23;1779200;81;20931;-88
2021/10/29 02:37:32;;;;;;;33.73;20.40;;;;;;;3.94;80.11;100413.06;1781611;80;21491;-88
2021/10/29 02:39:58;;;;;;;31.77;19.65;;;;;;;3.93;80.03;100416.14;1783429;80;20922;-88
2021/10/29 02:42:24;;;;;;;30.50;20.70;;;;;;;3.93;80.12;100409.61;1781844;80;20946;-88
2021/10/29 02:44:50;;;;;;;28.40;19.80;;;;;;;3.92;80.06;100407.92;1771008;80;20966;-88
2021/10/29 02:47:16;;;;;;;31.33;19.23;;;;;;;3.92;80.03;100412.31;1748082;80;21480;-88
2021/10/29 02:49:42;;;;;;;30.72;19.73;;;;;;;3.92;80.21;100409.70;1784624;80;20993;-88
2021/10/29 02:52:08;;;;;;;25.52;18.92;;;;;;;3.92;80.12;100414.92;1784135;80;20949;-88
2021/10/29 02:54:34;;;;;;;27.82;18.73;;;;;;;3.92;80.01;100411.00;1779820;80;20981;-88
2021/10/29 02:57:00;;;;;;;30.70;20.20;;;;;;;3.88;79.84;100406.37;1780958;80;20969;-88
2021/10/29 02:59:26;;;;;;;28.67;21.23;;;;;;;3.83;79.92;100392.66;1774676;80;21444;-88
2021/10/29 03:01:52;;;;;;;26.42;20.55;;;;;;;3.79;80.09;100401.55;1711528;82;20982;-88
2021/10/29 03:04:18;;;;;;;28.40;19.07;;;;;;;3.76;80.16;100398.61;1751620;81;20990;-87
2021/10/29 03:06:44;;;;;;;30.52;20.02;;;;;;;3.72;80.49;100400.13;1763757;81;21307;-88
2021/10/29 03:09:10;;;;;;;30.52;21.68;;;;;;;3.73;80.45;100395.28;1782531;80;21475;-88
2021/10/29 03:11:36;;;;;;;29.48;19.85;;;;;;;3.70;80.56;100396.25;1779755;80;21012;-88
2021/10/29 03:14:02;;;;;;;28.75;20.10;;;;;;;3.70;80.51;100392.34;1768679;80;21483;-88
2021/10/29 03:16:28;;;;;;;32.35;20.97;;;;;;;3.68;80.42;100398.07;1784482;80;21569;-88
2021/10/29 03:18:54;;;;;;;32.20;21.75;;;;;;;3.67;80.56;100389.86;1784805;80;21020;-88
2021/10/29 03:21:20;;;;;;;31.17;20.50;;;;;;;3.65;80.72;100389.53;1776213;80;20965;-88
2021/10/29 03:23:46;;;;;;;28.52;19.95;;;;;;;3.65;80.87;100390.41;1748343;82;20986;-88
2021/10/29 03:26:12;;;;;;;34.03;22.42;;;;;;;3.64;81.07;100382.16;1749452;81;20970;-88
2021/10/29 03:28:38;;;;;;;32.00;22.42;;;;;;;3.65;81.15;100383.88;1763374;80;21001;-88
2021/10/29 03:31:04;;;;;;;28.42;20.50;;;;;;;3.66;81.19;100386.88;1768902;81;20994;-88
2021/10/29 03:33:38;;;;;;;27.42;20.32;;;;;;;3.68;81.07;100380.27;1769513;81;21472;-88
2021/10/29 03:36:06;;;;;;;28.05;19.87;;;;;;;3.67;81.06;100379.88;1771046;80;21567;-88
2021/10/29 03:38:51;;;;;;;30.92;20.90;;;;;;;3.67;81.25;100380.73;1746555;82;21493;-88
2021/10/29 03:41:18;;;;;;;26.27;18.45;;;;;;;3.68;81.16;100377.66;1747392;81;21022;-87
2021/10/29 03:46:24;;;;;;;26.97;20.15;;;;;;;3.69;81.23;100380.68;1744807;80;21025;-88
2021/10/29 03:48:56;;;;;;;30.65;20.12;;;;;;;3.66;80.85;100384.27;1782299;80;21078;-88
2021/10/29 03:56:23;;;;;;;39.73;22.67;;;;;;;3.62;81.40;100377.48;1776803;81;21037;-87
2021/10/29 03:58:51;;;;;;;33.33;22.25;;;;;;;3.63;81.35;100379.17;1764442;80;21025;-87
2021/10/29 04:01:18;;;;;;;34.95;21.93;;;;;;;3.65;81.39;100379.09;1757986;81;20974;-87
2021/10/29 04:03:45;;;;;;;43.95;24.40;;;;;;;3.64;81.30;100374.80;1779523;80;21040;-87
2021/10/29 04:06:11;;;;;;;40.63;23.07;;;;;;;3.65;81.33;100377.36;1784223;80;21491;-87
2021/10/29 04:08:38;;;;;;;37.33;22.73;;;;;;;3.64;81.25;100373.03;1784616;80;20978;-87
2021/10/29 04:11:05;;;;;;;39.53;23.25;;;;;;;3.63;81.28;100372.65;1784022;80;21076;-88
2021/10/29 04:13:36;;;;;;;34.53;22.40;;;;;;;3.62;81.19;100372.27;1784406;80;21041;-88
2021/10/29 04:16:03;;;;;;;36.73;21.68;;;;;;;3.59;81.07;100371.55;1783919;80;21036;-87
2021/10/29 04:18:29;;;;;;;41.28;22.82;;;;;;;3.57;81.17;100370.76;1772560;80;20974;-88
2021/10/29 04:20:56;;;;;;;42.33;23.35;;;;;;;3.55;81.22;100367.36;1763637;81;21037;-88
2021/10/29 04:23:22;;;;;;;32.23;22.75;;;;;;;3.51;81.29;100358.35;1777786;80;20977;-87
2021/10/29 04:25:48;;;;;;;31.17;20.10;;;;;;;3.49;81.31;100365.87;1769166;80;21037;-88
2021/10/29 04:28:14;;;;;;;33.15;21.00;;;;;;;3.46;81.36;100353.80;1770554;80;21044;-87
2021/10/29 04:30:46;;;;;;;32.15;19.32;;;;;;;3.45;81.43;100352.55;1750492;80;20970;-88
2021/10/29 04:33:10;;;;;;;30.20;21.05;;;;;;;3.44;81.46;100351.70;1777831;80;21005;-87
2021/10/29 04:35:41;;;;;;;27.42;19.42;;;;;;;3.44;81.49;100359.53;1741199;82;21014;-84
2021/10/29 04:38:11;;;;;;;29.15;18.90;;;;;;;3.43;81.48;100357.84;1740791;82;21037;-87
2021/10/29 04:40:40;;;;;;;33.00;21.02;;;;;;;3.42;81.42;100356.16;1711229;84;21012;-87
2021/10/29 04:43:10;;;;;;;29.05;21.10;;;;;;;3.42;81.35;100357.47;1699378;84;21473;-87
2021/10/29 04:45:37;;;;;;;33.73;20.72;;;;;;;3.43;81.33;100362.22;1713924;83;21030;-87
2021/10/29 04:48:04;;;;;;;30.37;20.68;;;;;;;3.43;81.39;100357.00;1714711;84;21002;-87
2021/10/29 04:50:31;;;;;;;29.82;21.65;;;;;;;3.42;81.40;100359.20;1714544;83;20982;-87
2021/10/29 04:52:59;;;;;;;33.10;21.15;;;;;;;3.42;81.44;100360.08;1714875;83;21425;-87
2021/10/29 04:55:25;;;;;;;28.90;19.80;;;;;;;3.41;81.42;100357.05;1714414;84;21113;-87
2021/10/29 04:57:52;;;;;;;28.98;18.87;;;;;;;3.44;81.54;100363.91;1714707;83;21544;-87
2021/10/29 05:00:19;;;;;;;27.52;19.07;;;;;;;3.45;81.45;100361.68;1714711;83;21010;-87
2021/10/29 05:02:45;;;;;;;27.40;20.23;;;;;;;3.45;81.41;100352.55;1714701;84;21066;-87
2021/10/29 05:05:11;;;;;;;35.55;20.30;;;;;;;3.48;81.37;100357.64;1714778;84;21002;-87
2021/10/29 05:07:37;;;;;;;30.60;20.08;;;;;;;3.49;81.30;100356.28;1714415;84;21015;-87
2021/10/29 05:10:05;;;;;;;27.40;19.55;;;;;;;3.50;81.19;100359.73;1714826;83;21523;-87
2021/10/29 05:12:31;;;;;;;27.70;18.98;;;;;;;3.52;81.36;100361.38;1714817;83;21493;-87
2021/10/29 05:14:57;;;;;;;29.85;18.42;;;;;;;3.55;81.24;100363.44;1715008;83;20955;-87
2021/10/29 05:17:24;;;;;;;27.65;18.75;;;;;;;3.57;81.39;100365.08;1714693;83;20999;-87
2021/10/29 05:19:50;;;;;;;26.75;18.85;;;;;;;3.59;81.25;100358.50;1714955;83;20994;-87
2021/10/29 05:22:16;;;;;;;26.57;18.67;;;;;;;3.59;81.19;100364.56;1714668;83;21025;-87
2021/10/29 05:24:42;;;;;;;30.27;19.45;;;;;;;3.57;81.12;100359.86;1715024;83;21142;-87
2021/10/29 05:27:08;;;;;;;33.78;21.12;;;;;;;3.56;81.04;100361.25;1714784;83;21010;-87
2021/10/29 05:29:34;;;;;;;30.20;20.68;;;;;;;3.53;80.90;100354.39;1714840;84;21017;-87
2021/10/29 05:32:05;;;;;;;28.00;20.05;;;;;;;3.51;80.93;100358.81;1714713;83;21056;-87
2021/10/29 05:34:29;;;;;;;30.72;20.97;;;;;;;3.47;80.91;100348.97;1713935;83;21033;-87
2021/10/29 05:36:56;;;;;;;32.60;21.57;;;;;;;3.43;80.81;100351.33;1714818;83;21499;-87
2021/10/29 05:39:24;;;;;;;28.73;18.82;;;;;;;3.40;80.73;100348.00;1714673;84;21079;-87
2021/10/29 05:41:50;;;;;;;31.95;20.23;;;;;;;3.34;80.76;100343.05;1714482;83;21061;-87
2021/10/29 05:44:18;;;;;;;30.10;19.52;;;;;;;3.27;80.85;100350.28;1714928;83;20982;-87
2021/10/29 05:46:47;;;;;;;30.30;20.20;;;;;;;3.24;81.15;100351.70;1714801;84;21612;-87
2021/10/29 05:49:15;;;;;;;31.02;21.27;;;;;;;3.22;81.21;100347.00;1714764;84;21018;-87
2021/10/29 05:51:48;;;;;;;28.50;19.32;;;;;;;3.21;81.48;100357.89;1712433;82;21477;-87
2021/10/29 05:54:38;;;;;;;;;;;;;;;3.20;81.48;100356.20;1710242;82;21352;-87
2021/10/29 05:56:53;;;;;;;34.80;21.75;;;;;;;3.18;81.57;100352.80;1695216;84;20110;-87
2021/10/29 05:59:19;;;;;;;32.98;21.30;;;;;;;3.14;81.52;100355.16;1712604;84;21017;-87
2021/10/29 06:01:45;;;;;;;35.13;22.52;;;;;;;3.14;81.77;100354.31;1753198;82;21017;-87
2021/10/29 06:04:12;;;;;;;32.05;20.80;;;;;;;3.16;82.05;100351.16;1753902;82;21005;-87
2021/10/29 06:06:38;;;;;;;28.92;19.82;;;;;;;3.20;82.07;100349.69;1760058;81;21017;-87
2021/10/29 06:09:04;;;;;;;37.80;24.98;;;;;;;3.21;82.06;100354.44;1779114;81;21476;-87
2021/10/29 06:11:30;;;;;;;36.13;24.35;;;;;;;3.22;82.02;100350.91;1748679;81;21062;-87
2021/10/29 06:13:56;;;;;;;35.55;22.98;;;;;;;3.21;82.01;100356.59;1739548;82;21492;-87
2021/10/29 06:16:23;;;;;;;35.38;22.10;;;;;;;3.21;81.87;100355.28;1739690;82;20959;-87
2021/10/29 06:18:49;;;;;;;30.48;21.20;;;;;;;3.21;82.14;100360.50;1739268;82;21481;-87
2021/10/29 06:21:20;;;;;;;35.50;21.57;;;;;;;3.21;82.20;100357.89;1740669;81;21048;-87
2021/10/29 06:24:03;;;;;;;32.03;18.42;;;;;;;3.23;82.21;100363.91;1749065;80;21012;-87
2021/10/29 06:26:28;;;;;;;;;;;;;;;3.26;82.12;100365.55;1741092;82;21030;-87
2021/10/29 06:28:54;;;;;;;31.90;21.40;;;;;;;3.28;82.22;100361.09;1739912;82;20144;-88
2021/10/29 06:31:21;;;;;;;37.58;22.60;;;;;;;3.29;82.19;100369.30;1739084;82;21049;-87
2021/10/29 06:33:48;;;;;;;39.03;24.00;;;;;;;3.34;82.46;100367.82;1739774;82;21054;-87
2021/10/29 06:36:14;;;;;;;32.75;21.80;;;;;;;3.40;82.65;100365.80;1743546;81;21528;-87
2021/10/29 06:38:41;;;;;;;36.58;23.22;;;;;;;3.47;82.60;100366.39;1778908;81;21024;-87
2021/10/29 06:41:08;;;;;;;33.98;22.67;;;;;;;3.54;82.70;100365.20;1778882;81;21028;-87
2021/10/29 06:43:46;;;;;;;31.87;21.07;;;;;;;3.63;82.67;100371.80;1778321;81;21029;-87
2021/10/29 06:46:20;;;;;;;36.63;23.92;;;;;;;3.70;82.57;100374.07;1767804;80;21531;-87
2021/10/29 06:48:54;;;;;;;40.63;23.83;;;;;;;3.76;82.47;100373.81;1761223;80;21013;-87
2021/10/29 07:02:36;;;;;;;54.10;29.10;;;;;;;3.87;82.02;100387.69;1778865;80;21045;-87
2021/10/29 07:40:09;;;;;;;37.50;26.82;;;;;;;4.69;83.22;100379.14;1778899;81;21539;-86
2021/10/29 07:42:58;;;;;;;42.08;25.25;;;;;;;4.81;83.22;100386.88;1722141;82;21065;-87
2021/10/29 07:45:26;;;;;;;39.45;24.70;;;;;;;4.93;83.16;100378.89;1741491;82;21125;-86
2021/10/29 07:47:58;;;;;;;30.17;22.80;;;;;;;5.07;83.22;100383.47;1741915;82;20982;-86
2021/10/29 07:50:26;;;;;;;40.15;28.92;;;;;;;5.20;83.19;100383.69;1741725;82;21325;-86
2021/10/29 07:52:55;;;;;;;34.53;22.87;;;;;;;5.33;83.02;100384.77;1741961;82;20994;-85
2021/10/29 07:55:25;;;;;;;35.58;23.02;;;;;;;5.47;82.76;100381.02;1741913;82;21343;-86
2021/10/29 07:58:00;;;;;;;34.67;23.18;;;;;;;5.64;82.63;100382.78;1741914;82;21001;-86
2021/10/29 08:00:22;;;;;;;35.15;20.68;;;;;;;5.80;82.40;100379.75;1740905;82;20995;-86
2021/10/29 08:02:51;;;;;;;32.45;19.95;;;;;;;5.95;82.22;100380.74;1741635;82;20987;-86
2021/10/29 08:05:19;;;;;;;28.05;20.90;;;;;;;6.12;81.75;100382.50;1741858;82;21069;-86
2021/10/29 08:07:46;;;;;;;28.70;19.75;;;;;;;6.27;81.55;100382.13;1741855;82;21018;-86
2021/10/29 08:10:13;;;;;;;28.60;19.90;;;;;;;6.43;81.33;100380.84;1741711;82;20993;-87
2021/10/29 08:12:40;;;;;;;29.75;18.35;;;;;;;6.58;81.19;100374.30;1741764;82;21038;-86
2021/10/29 08:15:10;;;;;;;31.12;19.62;;;;;;;6.76;80.69;100372.89;1741864;82;20986;-85
2021/10/29 08:17:38;;;;;;;26.45;17.77;;;;;;;6.96;80.21;100374.38;1741731;82;21014;-85
2021/10/29 08:20:09;;;;;;;26.75;17.70;;;;;;;7.16;80.00;100371.93;1741716;82;21454;-87
2021/10/29 08:22:38;;;;;;;28.15;18.50;;;;;;;7.35;79.25;100372.55;1741627;82;20997;-85
2021/10/29 08:25:07;;;;;;;32.10;18.85;;;;;;;7.56;79.33;100373.06;1726667;82;21543;-86
2021/10/29 08:27:34;;;;;;;27.15;18.25;;;;;;;7.73;79.07;100362.86;1759968;81;20974;-86
2021/10/29 08:30:08;;;;;;;27.77;19.42;;;;;;;7.89;78.35;100371.50;1760250;81;21069;-86
2021/10/29 08:32:40;;;;;;;27.40;18.98;;;;;;;8.05;78.46;100358.28;1711987;82;21639;-85
2021/10/29 08:35:07;;;;;;;35.27;19.90;;;;;;;8.22;78.13;100359.86;1715888;82;21406;-86
2021/10/29 08:37:36;;;;;;;26.45;18.00;;;;;;;8.39;77.92;100356.20;1759032;81;20969;-87
2021/10/29 08:40:05;;;;;;;24.75;16.50;;;;;;;8.55;77.86;100346.88;1760552;81;21028;-86
2021/10/29 08:42:33;;;;;;;28.12;17.37;;;;;;;8.69;76.94;100352.96;1754126;81;21503;-86
2021/10/29 08:45:07;;;;;;;24.20;16.50;;;;;;;8.86;76.41;100353.19;1761516;80;21488;-84
2021/10/29 08:47:41;;;;;;;24.07;16.27;;;;;;;9.04;75.97;100344.54;1756336;81;21002;-85
2021/10/29 08:50:16;;;;;;;22.80;15.35;;;;;;;9.21;75.56;100347.84;1758690;81;21044;-85
2021/10/29 08:52:48;;;;;;;21.57;15.05;;;;;;;9.37;75.19;100341.92;1753882;81;21013;-85
2021/10/29 08:55:20;;;;;;;23.15;15.43;;;;;;;9.53;74.62;100338.63;1760810;81;20961;-87
2021/10/29 08:57:49;;;;;;;25.17;15.28;;;;;;;9.68;74.27;100334.12;1715510;82;21026;-85
2021/10/29 09:00:26;;;;;;;21.80;15.53;;;;;;;9.85;74.30;100340.38;1718177;82;21560;-85
2021/10/29 09:03:01;;;;;;;23.62;15.25;;;;;;;10.02;73.67;100334.41;1759976;81;21018;-85
2021/10/29 09:31:34;;;;;;;17.73;11.35;;;;;;;11.77;69.46;100340.03;1763393;80;21132;-85
2021/10/29 09:34:10;;;;;;;17.20;11.38;;;;;;;11.96;68.54;100336.36;1689781;84;21057;-85
2021/10/29 09:36:43;;;;;;;15.93;12.15;;;;;;;12.15;67.86;100335.27;1752077;81;21025;-87
2021/10/29 09:39:18;;;;;;;18.62;11.97;;;;;;;12.30;67.53;100341.63;1750680;81;20994;-86
2021/10/29 09:42:02;;;;;;;15.53;11.28;;;;;;;12.44;67.40;100334.28;1748380;82;21504;-85
2021/10/29 09:44:46;;;;;;;16.05;11.15;;;;;;;12.60;67.28;100340.97;1746396;82;21551;-85
2021/10/29 09:47:17;;;;;;;19.23;9.73;;;;;;;12.76;66.23;100340.56;1747954;82;20985;-87
2021/10/29 09:50:07;;;;;;;14.10;10.55;;;;;;;12.88;65.22;100334.28;1689093;84;21021;-86
2021/10/29 09:57:36;;;;;;;16.23;11.63;;;;;;;13.26;63.89;100324.52;1683982;84;21022;-86
2021/10/29 10:00:08;;;;;;;13.53;9.58;;;;;;;13.39;64.28;100320.33;1748248;82;21530;-86
2021/10/29 10:02:39;;;;;;;;;;;;;;;13.50;63.51;100313.65;1751520;80;21025;-87
2021/10/29 10:05:07;;;;;;;10.72;8.80;;;;;;;13.66;63.34;100316.33;1771003;81;20112;-84
2021/10/29 10:07:38;;;;;;;12.10;8.63;;;;;;;13.78;62.12;100311.27;1778346;81;21503;-86
2021/10/29 10:10:07;;;;;;;12.68;8.70;;;;;;;13.86;61.72;100311.96;1754627;81;20977;-85
2021/10/29 10:12:42;;;;;;;10.28;8.28;;;;;;;13.96;61.15;100307.53;1747951;82;21558;-85
2021/10/29 10:15:10;;;;;;;11.10;8.28;;;;;;;14.07;60.56;100306.09;1747657;82;21044;-85
2021/10/29 10:17:38;;;;;;;11.03;8.70;;;;;;;14.19;61.37;100294.91;1747965;82;20989;-86
2021/10/29 10:20:07;;;;;;;10.35;7.60;;;;;;;14.33;60.50;100298.49;1747690;82;20997;-84
2021/10/29 10:22:39;;;;;;;9.75;8.15;;;;;;;14.45;59.69;100291.27;1781142;80;21032;-87
2021/10/29 10:25:16;;;;;;;8.30;7.20;;;;;;;14.53;59.07;100296.75;1774017;80;21001;-89
2021/10/29 10:44:58;;;;;;;10.48;7.53;;;;;;;15.02;55.88;100285.66;1732224;82;21061;-87
2021/10/29 10:47:04;;;;;;;13.00;8.18;;;;;;;15.07;56.18;100287.42;1744104;82;21065;-87
2021/10/29 10:49:57;;;;;;;11.18;7.67;;;;;;;15.16;56.05;100285.21;1753367;81;20973;-87
2021/10/29 10:54:54;;;;;;;11.10;7.03;;;;;;;15.26;54.87;100277.22;1758169;80;21045;-87
2021/10/29 11:00:04;;;;;;;12.03;8.00;;;;;;;15.37;54.43;100280.23;1760336;81;21507;-85
2021/10/29 11:05:21;;;;;;;11.45;7.70;;;;;;;15.46;53.83;100284.67;1773472;81;21023;-85
2021/10/29 11:10:20;;;;;;;12.35;7.53;;;;;;;15.59;53.34;100277.21;1760661;80;20971;-84
2021/10/29 11:12:52;;;;;;;9.60;7.70;;;;;;;15.63;52.90;100280.42;1752232;82;20993;-84
2021/10/29 11:15:26;;;;;;;9.60;7.35;;;;;;;15.64;52.14;100284.78;1749384;82;20953;-85
2021/10/29 11:17:58;;;;;;;14.83;8.35;;;;;;;15.63;52.57;100277.76;1764864;81;21008;-86
2021/10/29 11:20:49;;;;;;;19.57;9.60;;;;;;;15.65;52.50;100273.98;1761077;81;21037;-86
2021/10/29 11:23:32;;;;;;;10.05;8.18;;;;;;;15.71;52.39;100262.80;1747718;82;21657;-86
2021/10/29 11:26:03;;;;;;;;;;;;;;;15.76;51.43;100265.03;1766081;81;21527;-86
2021/10/29 11:28:50;;;;;;;11.65;8.33;;;;;;;15.72;51.23;100264.95;1756439;80;20154;-86
2021/10/29 11:31:21;;;;;;;12.35;8.63;;;;;;;15.72;51.60;100266.28;1741845;82;21518;-86
2021/10/29 11:33:52;;;;;;;13.95;8.55;;;;;;;15.75;51.10;100259.84;1750908;82;21423;-85
2021/10/29 11:36:24;;;;;;;11.22;8.25;;;;;;;15.78;51.10;100264.88;1715619;82;21578;-86
2021/10/29 11:38:53;;;;;;;11.75;8.58;;;;;;;15.80;50.61;100257.59;1763034;80;21044;-86
2021/10/29 11:41:28;;;;;;;10.85;8.60;;;;;;;15.80;50.60;100250.94;1762020;81;21032;-86
2021/10/29 11:44:09;;;;;;;13.10;9.28;;;;;;;15.84;50.61;100248.33;1759255;80;21491;-85
2021/10/29 11:46:37;;;;;;;13.78;8.10;;;;;;;15.84;49.87;100243.00;1763415;81;21001;-84
2021/10/29 11:49:17;;;;;;;11.93;9.05;;;;;;;15.87;50.54;100247.53;1757038;81;21041;-84
2021/10/29 11:51:46;;;;;;;13.28;9.08;;;;;;;15.92;50.70;100245.75;1761374;81;20947;-84
2021/10/29 11:54:24;;;;;;;13.08;8.68;;;;;;;15.98;50.71;100239.84;1749749;81;21591;-84
2021/10/29 12:07:43;;;;;;;9.98;7.25;;;;;;;16.23;50.44;100207.69;1756231;80;21074;-84
2021/10/29 12:10:19;;;;;;;10.30;6.83;;;;;;;16.27;50.36;100209.55;1761811;81;21037;-84
2021/10/29 12:12:49;;;;;;;11.35;7.05;;;;;;;16.34;50.43;100205.30;1773674;81;21548;-83
2021/10/29 12:15:21;;;;;;;17.87;8.35;;;;;;;16.41;50.50;100199.20;1772448;81;21097;-84
2021/10/29 12:17:54;;;;;;;20.10;13.38;;;;;;;16.50;50.57;100201.95;1760801;81;21056;-83
2021/10/29 12:20:27;;;;;;;17.23;11.12;;;;;;;16.54;50.11;100203.31;1758103;81;21525;-83
2021/10/29 12:23:00;;;;;;;10.20;8.20;;;;;;;16.62;50.04;100202.08;1752392;82;21054;-84
2021/10/29 12:28:24;;;;;;;10.88;7.78;;;;;;;16.72;49.57;100200.66;1766547;81;21072;-84
2021/10/29 12:30:52;;;;;;;10.93;6.90;;;;;;;16.77;49.01;100198.38;1757556;80;21042;-85
2021/10/29 12:33:52;;;;;;;12.30;6.92;;;;;;;16.79;49.13;100195.91;1772428;80;21654;-85
2021/10/29 13:04:19;;;;;;;10.72;6.10;;;;;;;17.20;47.39;100154.86;1749907;81;21037;-83
2021/10/29 13:06:50;;;;;;;11.18;6.80;;;;;;;17.25;47.37;100156.56;1736034;82;21068;-85
2021/10/29 13:09:22;;;;;;;10.82;7.33;;;;;;;17.31;47.31;100150.60;1718305;82;21053;-85
2021/10/29 13:11:59;;;;;;;9.55;6.60;;;;;;;17.37;47.36;100154.44;1731141;82;20993;-85
2021/10/29 13:14:31;;;;;;;9.88;6.30;;;;;;;17.41;47.22;100144.31;1734405;82;21050;-84
2021/10/29 13:16:59;;;;;;;13.75;7.10;;;;;;;17.46;47.60;100149.98;1714785;82;21082;-85
2021/10/29 13:22:57;;;;;;;10.98;7.33;;;;;;;17.51;47.35;100139.69;1723570;82;21063;-84
2021/10/29 13:25:22;;;;;;;9.00;6.30;;;;;;;17.53;46.71;100130.50;1769738;81;21100;-86
2021/10/29 13:52:05;;;;;;;8.70;6.25;;;;;;;17.68;46.25;100113.39;1750382;82;21023;-85
2021/10/29 14:00:14;;;;;;;12.55;5.80;;;;;;;17.68;46.10;100107.23;1760696;81;21043;-85
2021/10/29 14:24:32;;;;;;;8.63;6.15;;;;;;;17.56;44.83;100087.50;1758595;81;21015;-85
2021/10/29 14:29:50;;;;;;;11.40;6.83;;;;;;;17.47;44.50;100077.83;1759370;81;21647;-85
2021/10/29 14:32:23;;;;;;;9.68;6.55;;;;;;;17.43;44.57;100076.45;1710688;82;21089;-85
2021/10/29 14:34:57;;;;;;;11.08;5.97;;;;;;;17.39;45.03;100076.95;1747767;82;21032;-85
2021/10/29 14:37:26;;;;;;;10.10;5.87;;;;;;;17.31;45.25;100075.94;1741174;82;21018;-85
2021/10/29 14:40:11;;;;;;;9.50;5.90;;;;;;;17.25;45.58;100079.23;1748340;81;21618;-85
2021/10/29 14:42:40;;;;;;;9.00;5.75;;;;;;;17.18;45.49;100070.21;1737155;81;21058;-85
2021/10/29 14:45:18;;;;;;;12.13;5.72;;;;;;;17.07;45.21;100062.48;1736498;82;21066;-85
2021/10/29 15:04:07;;;;;;;10.70;7.65;;;;;;;16.28;44.56;100056.30;1778943;81;21072;-86
2021/10/29 15:06:51;;;;;;;16.77;9.15;;;;;;;16.17;44.61;100058.72;1739705;82;21073;-84
2021/10/29 15:25:48;;;;;;;19.65;12.45;;;;;;;15.37;44.70;100060.41;1747025;82;21622;-88
2021/10/29 15:44:31;;;;;;;19.50;14.25;;;;;;;14.52;47.08;100052.97;1758456;80;21093;-89
2021/10/29 15:49:23;;;;;;;24.72;16.55;;;;;;;14.27;47.66;100053.54;1747388;82;21115;-84
2021/10/29 15:51:56;;;;;;;29.42;15.85;;;;;;;14.15;47.70;100054.20;1748385;80;21013;-84